Terminal Aerodrome Forecast
Issued by NWS

Home | Current Version | Previous Version | Graphics & Text | Print | Product List | Glossary On
Versions: 1 2 3 4 5 6 7 8 9 10 11 12 13 14
000
FTUS43 KMPX 301412 AAA
TAFRWF
TAF AMD
KRWF 301412Z 3014/0112 02004KT 5SM HZ SCT250
     FM301600 04006KT P6SM FEW040 SCT250
     FM010200 09005KT P6SM BKN150=

USA.gov is the U.S. government's official web portal to all federal, state and local government web resources and services.